sensor_id;sensor_type;location;lat;lon;timestamp;P1;durP1;ratioP1;P2;durP2;ratioP2
61435;SDS011;47304;47.456;19.160;2023-06-19T00:02:00;11.40;;;6.70;;
61435;SDS011;47304;47.456;19.160;2023-06-19T00:04:27;11.90;;;7.50;;
61435;SDS011;47304;47.456;19.160;2023-06-19T00:06:54;14.30;;;7.90;;
61435;SDS011;47304;47.456;19.160;2023-06-19T00:09:21;13.90;;;7.20;;
61435;SDS011;47304;47.456;19.160;2023-06-19T00:11:47;11.80;;;7.80;;
61435;SDS011;47304;47.456;19.160;2023-06-19T00:14:14;12.40;;;7.30;;
61435;SDS011;47304;47.456;19.160;2023-06-19T00:16:40;12.20;;;7.40;;
61435;SDS011;47304;47.456;19.160;2023-06-19T00:19:09;11.30;;;7.10;;
61435;SDS011;47304;47.456;19.160;2023-06-19T00:21:35;12.20;;;7.30;;
61435;SDS011;47304;47.456;19.160;2023-06-19T00:24:02;12.40;;;7.30;;
61435;SDS011;47304;47.456;19.160;2023-06-19T00:26:29;11.30;;;7.30;;
61435;SDS011;47304;47.456;19.160;2023-06-19T00:28:56;12.00;;;7.40;;
61435;SDS011;47304;47.456;19.160;2023-06-19T00:31:23;11.40;;;7.30;;
61435;SDS011;47304;47.456;19.160;2023-06-19T00:33:49;12.20;;;7.60;;
61435;SDS011;47304;47.456;19.160;2023-06-19T00:36:16;13.10;;;7.00;;
61435;SDS011;47304;47.456;19.160;2023-06-19T00:38:43;13.50;;;7.90;;
61435;SDS011;47304;47.456;19.160;2023-06-19T00:41:09;11.90;;;7.20;;
61435;SDS011;47304;47.456;19.160;2023-06-19T00:43:36;11.10;;;7.00;;
61435;SDS011;47304;47.456;19.160;2023-06-19T00:46:02;11.80;;;7.50;;
61435;SDS011;47304;47.456;19.160;2023-06-19T00:48:29;12.90;;;7.90;;
61435;SDS011;47304;47.456;19.160;2023-06-19T00:50:57;13.70;;;7.70;;
61435;SDS011;47304;47.456;19.160;2023-06-19T00:53:24;11.80;;;7.40;;
61435;SDS011;47304;47.456;19.160;2023-06-19T00:55:52;13.50;;;7.50;;
61435;SDS011;47304;47.456;19.160;2023-06-19T00:58:21;10.70;;;6.90;;
61435;SDS011;47304;47.456;19.160;2023-06-19T01:00:48;11.90;;;7.30;;
61435;SDS011;47304;47.456;19.160;2023-06-19T01:03:32;12.70;;;7.60;;
61435;SDS011;47304;47.456;19.160;2023-06-19T01:05:59;11.60;;;7.50;;
61435;SDS011;47304;47.456;19.160;2023-06-19T01:11:17;11.90;;;7.40;;
61435;SDS011;47304;47.456;19.160;2023-06-19T01:13:58;11.40;;;7.20;;
61435;SDS011;47304;47.456;19.160;2023-06-19T01:16:29;11.10;;;7.50;;
61435;SDS011;47304;47.456;19.160;2023-06-19T01:18:56;13.30;;;7.90;;
61435;SDS011;47304;47.456;19.160;2023-06-19T01:21:24;11.60;;;7.80;;
61435;SDS011;47304;47.456;19.160;2023-06-19T01:23:50;12.30;;;7.90;;
61435;SDS011;47304;47.456;19.160;2023-06-19T01:26:17;12.90;;;7.70;;
61435;SDS011;47304;47.456;19.160;2023-06-19T01:28:44;12.10;;;7.90;;
61435;SDS011;47304;47.456;19.160;2023-06-19T01:31:20;11.20;;;7.90;;
61435;SDS011;47304;47.456;19.160;2023-06-19T01:33:51;14.30;;;8.10;;
61435;SDS011;47304;47.456;19.160;2023-06-19T01:36:20;12.10;;;7.40;;
61435;SDS011;47304;47.456;19.160;2023-06-19T01:38:48;12.50;;;7.80;;
61435;SDS011;47304;47.456;19.160;2023-06-19T01:41:15;15.20;;;8.20;;
61435;SDS011;47304;47.456;19.160;2023-06-19T01:43:42;12.10;;;7.10;;
61435;SDS011;47304;47.456;19.160;2023-06-19T01:46:10;12.70;;;8.60;;
61435;SDS011;47304;47.456;19.160;2023-06-19T01:48:37;12.50;;;8.30;;
61435;SDS011;47304;47.456;19.160;2023-06-19T01:51:04;14.00;;;8.30;;
61435;SDS011;47304;47.456;19.160;2023-06-19T01:53:31;12.80;;;8.60;;
61435;SDS011;47304;47.456;19.160;2023-06-19T01:55:58;16.10;;;8.10;;
61435;SDS011;47304;47.456;19.160;2023-06-19T01:58:25;14.50;;;8.20;;
61435;SDS011;47304;47.456;19.160;2023-06-19T02:00:51;13.80;;;8.30;;
61435;SDS011;47304;47.456;19.160;2023-06-19T02:03:18;16.80;;;8.40;;
61435;SDS011;47304;47.456;19.160;2023-06-19T02:05:45;14.40;;;8.10;;
61435;SDS011;47304;47.456;19.160;2023-06-19T02:08:11;14.30;;;8.10;;
61435;SDS011;47304;47.456;19.160;2023-06-19T02:10:38;13.20;;;8.30;;
61435;SDS011;47304;47.456;19.160;2023-06-19T02:13:04;12.90;;;8.20;;
61435;SDS011;47304;47.456;19.160;2023-06-19T02:15:31;13.30;;;8.10;;
61435;SDS011;47304;47.456;19.160;2023-06-19T02:17:59;12.40;;;7.60;;
61435;SDS011;47304;47.456;19.160;2023-06-19T02:20:26;14.80;;;8.40;;
61435;SDS011;47304;47.456;19.160;2023-06-19T02:22:53;12.90;;;8.20;;
61435;SDS011;47304;47.456;19.160;2023-06-19T02:25:19;12.40;;;8.50;;
61435;SDS011;47304;47.456;19.160;2023-06-19T02:27:46;14.90;;;9.00;;
61435;SDS011;47304;47.456;19.160;2023-06-19T02:30:12;13.40;;;8.60;;
61435;SDS011;47304;47.456;19.160;2023-06-19T02:32:39;13.50;;;8.80;;
61435;SDS011;47304;47.456;19.160;2023-06-19T02:35:09;14.30;;;9.70;;
61435;SDS011;47304;47.456;19.160;2023-06-19T02:37:37;14.60;;;9.30;;
61435;SDS011;47304;47.456;19.160;2023-06-19T02:40:04;16.30;;;9.60;;
61435;SDS011;47304;47.456;19.160;2023-06-19T02:42:31;13.70;;;9.20;;
61435;SDS011;47304;47.456;19.160;2023-06-19T02:44:57;13.70;;;9.10;;
61435;SDS011;47304;47.456;19.160;2023-06-19T02:47:24;14.60;;;9.50;;
61435;SDS011;47304;47.456;19.160;2023-06-19T02:49:51;14.70;;;9.20;;
61435;SDS011;47304;47.456;19.160;2023-06-19T02:52:18;13.20;;;9.00;;
61435;SDS011;47304;47.456;19.160;2023-06-19T02:54:44;13.40;;;8.90;;
61435;SDS011;47304;47.456;19.160;2023-06-19T02:57:11;14.70;;;9.30;;
61435;SDS011;47304;47.456;19.160;2023-06-19T02:59:37;12.40;;;8.50;;
61435;SDS011;47304;47.456;19.160;2023-06-19T03:02:04;13.60;;;8.30;;
61435;SDS011;47304;47.456;19.160;2023-06-19T03:04:31;14.30;;;9.10;;
61435;SDS011;47304;47.456;19.160;2023-06-19T03:06:57;14.30;;;9.50;;
61435;SDS011;47304;47.456;19.160;2023-06-19T03:09:24;15.10;;;8.60;;
61435;SDS011;47304;47.456;19.160;2023-06-19T03:11:50;13.80;;;9.10;;
61435;SDS011;47304;47.456;19.160;2023-06-19T03:14:17;15.00;;;8.90;;
61435;SDS011;47304;47.456;19.160;2023-06-19T03:16:45;15.70;;;8.80;;
61435;SDS011;47304;47.456;19.160;2023-06-19T03:19:12;14.20;;;8.60;;
61435;SDS011;47304;47.456;19.160;2023-06-19T03:21:39;14.10;;;8.60;;
61435;SDS011;47304;47.456;19.160;2023-06-19T03:24:06;12.80;;;8.60;;
61435;SDS011;47304;47.456;19.160;2023-06-19T03:26:32;12.50;;;8.20;;
61435;SDS011;47304;47.456;19.160;2023-06-19T03:28:59;13.30;;;9.10;;
61435;SDS011;47304;47.456;19.160;2023-06-19T03:31:25;13.20;;;8.50;;
61435;SDS011;47304;47.456;19.160;2023-06-19T03:33:52;15.10;;;8.30;;
61435;SDS011;47304;47.456;19.160;2023-06-19T03:36:18;13.20;;;9.60;;
61435;SDS011;47304;47.456;19.160;2023-06-19T03:38:45;12.50;;;8.40;;
61435;SDS011;47304;47.456;19.160;2023-06-19T03:41:11;12.00;;;8.10;;
61435;SDS011;47304;47.456;19.160;2023-06-19T03:43:38;14.90;;;8.80;;
61435;SDS011;47304;47.456;19.160;2023-06-19T03:46:05;12.90;;;8.10;;
61435;SDS011;47304;47.456;19.160;2023-06-19T03:48:32;13.30;;;9.00;;
61435;SDS011;47304;47.456;19.160;2023-06-19T03:50:58;14.10;;;8.60;;
61435;SDS011;47304;47.456;19.160;2023-06-19T03:53:25;13.10;;;8.80;;
61435;SDS011;47304;47.456;19.160;2023-06-19T03:55:52;14.20;;;9.00;;
61435;SDS011;47304;47.456;19.160;2023-06-19T03:58:21;15.60;;;9.10;;
61435;SDS011;47304;47.456;19.160;2023-06-19T04:00:48;13.40;;;9.10;;
61435;SDS011;47304;47.456;19.160;2023-06-19T04:03:14;12.40;;;8.50;;
61435;SDS011;47304;47.456;19.160;2023-06-19T04:05:41;13.40;;;9.30;;
61435;SDS011;47304;47.456;19.160;2023-06-19T04:08:08;14.70;;;9.40;;
61435;SDS011;47304;47.456;19.160;2023-06-19T04:10:34;13.80;;;9.30;;
61435;SDS011;47304;47.456;19.160;2023-06-19T04:13:01;13.70;;;9.80;;
61435;SDS011;47304;47.456;19.160;2023-06-19T04:15:28;15.70;;;10.10;;
61435;SDS011;47304;47.456;19.160;2023-06-19T04:17:54;16.70;;;10.00;;
61435;SDS011;47304;47.456;19.160;2023-06-19T04:20:21;14.20;;;10.10;;
61435;SDS011;47304;47.456;19.160;2023-06-19T04:22:48;15.50;;;9.50;;
61435;SDS011;47304;47.456;19.160;2023-06-19T04:25:14;15.10;;;9.20;;
61435;SDS011;47304;47.456;19.160;2023-06-19T04:27:41;16.00;;;10.60;;
61435;SDS011;47304;47.456;19.160;2023-06-19T04:30:07;15.10;;;9.60;;
61435;SDS011;47304;47.456;19.160;2023-06-19T04:32:34;15.90;;;9.50;;
61435;SDS011;47304;47.456;19.160;2023-06-19T04:35:01;15.30;;;9.60;;
61435;SDS011;47304;47.456;19.160;2023-06-19T04:37:28;16.10;;;9.20;;
61435;SDS011;47304;47.456;19.160;2023-06-19T04:39:54;14.20;;;9.20;;
61435;SDS011;47304;47.456;19.160;2023-06-19T04:42:21;14.50;;;8.50;;
61435;SDS011;47304;47.456;19.160;2023-06-19T04:44:48;12.40;;;8.20;;
61435;SDS011;47304;47.456;19.160;2023-06-19T04:47:16;13.30;;;8.40;;
61435;SDS011;47304;47.456;19.160;2023-06-19T04:49:45;12.10;;;7.70;;
61435;SDS011;47304;47.456;19.160;2023-06-19T04:52:12;12.10;;;8.00;;
61435;SDS011;47304;47.456;19.160;2023-06-19T04:54:39;12.60;;;7.90;;
61435;SDS011;47304;47.456;19.160;2023-06-19T04:57:05;12.10;;;7.70;;
61435;SDS011;47304;47.456;19.160;2023-06-19T04:59:32;11.50;;;7.30;;
61435;SDS011;47304;47.456;19.160;2023-06-19T05:01:59;13.20;;;7.30;;
61435;SDS011;47304;47.456;19.160;2023-06-19T05:04:26;12.40;;;7.90;;
61435;SDS011;47304;47.456;19.160;2023-06-19T05:06:53;12.50;;;7.80;;
61435;SDS011;47304;47.456;19.160;2023-06-19T05:09:19;12.00;;;7.70;;
61435;SDS011;47304;47.456;19.160;2023-06-19T05:11:46;12.10;;;7.40;;
61435;SDS011;47304;47.456;19.160;2023-06-19T05:14:12;11.80;;;7.80;;
61435;SDS011;47304;47.456;19.160;2023-06-19T05:16:39;11.70;;;7.70;;
61435;SDS011;47304;47.456;19.160;2023-06-19T05:19:06;12.30;;;7.30;;
61435;SDS011;47304;47.456;19.160;2023-06-19T05:21:32;13.20;;;8.70;;
61435;SDS011;47304;47.456;19.160;2023-06-19T05:23:59;12.30;;;7.30;;
61435;SDS011;47304;47.456;19.160;2023-06-19T05:26:26;11.30;;;7.30;;
61435;SDS011;47304;47.456;19.160;2023-06-19T05:28:52;12.00;;;7.50;;
61435;SDS011;47304;47.456;19.160;2023-06-19T05:31:19;11.40;;;7.50;;
61435;SDS011;47304;47.456;19.160;2023-06-19T05:33:45;13.30;;;7.70;;
61435;SDS011;47304;47.456;19.160;2023-06-19T05:36:12;12.40;;;8.00;;
61435;SDS011;47304;47.456;19.160;2023-06-19T05:38:39;11.40;;;8.00;;
61435;SDS011;47304;47.456;19.160;2023-06-19T05:41:05;13.40;;;8.10;;
61435;SDS011;47304;47.456;19.160;2023-06-19T05:43:32;11.50;;;7.90;;
61435;SDS011;47304;47.456;19.160;2023-06-19T05:45:58;15.40;;;9.10;;
61435;SDS011;47304;47.456;19.160;2023-06-19T05:48:25;11.70;;;8.00;;
61435;SDS011;47304;47.456;19.160;2023-06-19T05:50:52;12.10;;;8.20;;
61435;SDS011;47304;47.456;19.160;2023-06-19T05:53:19;11.90;;;8.10;;
61435;SDS011;47304;47.456;19.160;2023-06-19T05:55:45;15.60;;;8.90;;
61435;SDS011;47304;47.456;19.160;2023-06-19T05:58:12;13.40;;;8.50;;
61435;SDS011;47304;47.456;19.160;2023-06-19T06:00:38;14.70;;;8.90;;
61435;SDS011;47304;47.456;19.160;2023-06-19T06:03:05;13.30;;;8.70;;
61435;SDS011;47304;47.456;19.160;2023-06-19T06:05:31;11.80;;;8.50;;
61435;SDS011;47304;47.456;19.160;2023-06-19T06:07:58;13.40;;;8.20;;
61435;SDS011;47304;47.456;19.160;2023-06-19T06:10:24;12.50;;;8.60;;
61435;SDS011;47304;47.456;19.160;2023-06-19T06:12:51;13.80;;;8.70;;
61435;SDS011;47304;47.456;19.160;2023-06-19T06:15:18;13.80;;;9.30;;
61435;SDS011;47304;47.456;19.160;2023-06-19T06:17:45;14.60;;;9.50;;
61435;SDS011;47304;47.456;19.160;2023-06-19T06:20:11;13.80;;;9.20;;
61435;SDS011;47304;47.456;19.160;2023-06-19T06:22:38;14.40;;;8.70;;
61435;SDS011;47304;47.456;19.160;2023-06-19T06:25:06;13.00;;;9.20;;
61435;SDS011;47304;47.456;19.160;2023-06-19T06:27:33;13.30;;;9.60;;
61435;SDS011;47304;47.456;19.160;2023-06-19T06:30:00;13.60;;;8.90;;
61435;SDS011;47304;47.456;19.160;2023-06-19T06:32:26;11.10;;;7.80;;
61435;SDS011;47304;47.456;19.160;2023-06-19T06:34:53;12.30;;;7.70;;
61435;SDS011;47304;47.456;19.160;2023-06-19T06:37:20;12.70;;;8.40;;
61435;SDS011;47304;47.456;19.160;2023-06-19T06:39:46;12.50;;;8.00;;
61435;SDS011;47304;47.456;19.160;2023-06-19T06:42:13;13.70;;;8.00;;
61435;SDS011;47304;47.456;19.160;2023-06-19T06:44:39;11.70;;;7.80;;
61435;SDS011;47304;47.456;19.160;2023-06-19T06:47:06;12.20;;;7.80;;
61435;SDS011;47304;47.456;19.160;2023-06-19T06:49:32;11.10;;;6.70;;
61435;SDS011;47304;47.456;19.160;2023-06-19T06:51:59;13.50;;;7.90;;
61435;SDS011;47304;47.456;19.160;2023-06-19T06:54:25;13.10;;;7.40;;
61435;SDS011;47304;47.456;19.160;2023-06-19T06:56:52;14.00;;;8.00;;
61435;SDS011;47304;47.456;19.160;2023-06-19T06:59:19;12.80;;;7.70;;
61435;SDS011;47304;47.456;19.160;2023-06-19T07:01:45;10.80;;;6.90;;
61435;SDS011;47304;47.456;19.160;2023-06-19T07:04:12;9.80;;;6.50;;
61435;SDS011;47304;47.456;19.160;2023-06-19T07:06:38;10.60;;;6.70;;
61435;SDS011;47304;47.456;19.160;2023-06-19T07:09:05;10.10;;;6.40;;
61435;SDS011;47304;47.456;19.160;2023-06-19T07:11:32;8.30;;;5.30;;
61435;SDS011;47304;47.456;19.160;2023-06-19T07:13:58;9.80;;;6.20;;
61435;SDS011;47304;47.456;19.160;2023-06-19T07:16:25;9.50;;;5.90;;
61435;SDS011;47304;47.456;19.160;2023-06-19T07:18:52;9.90;;;6.10;;
61435;SDS011;47304;47.456;19.160;2023-06-19T07:21:18;13.70;;;6.00;;
61435;SDS011;47304;47.456;19.160;2023-06-19T07:23:45;10.80;;;6.50;;
61435;SDS011;47304;47.456;19.160;2023-06-19T07:26:12;12.40;;;5.90;;
61435;SDS011;47304;47.456;19.160;2023-06-19T07:28:39;12.50;;;6.40;;
61435;SDS011;47304;47.456;19.160;2023-06-19T07:31:05;11.50;;;6.20;;
61435;SDS011;47304;47.456;19.160;2023-06-19T07:33:32;9.80;;;6.50;;
61435;SDS011;47304;47.456;19.160;2023-06-19T07:35:58;15.10;;;7.90;;
61435;SDS011;47304;47.456;19.160;2023-06-19T07:38:25;12.40;;;6.90;;
61435;SDS011;47304;47.456;19.160;2023-06-19T07:40:51;9.60;;;6.10;;
61435;SDS011;47304;47.456;19.160;2023-06-19T07:43:18;10.00;;;6.00;;
61435;SDS011;47304;47.456;19.160;2023-06-19T07:45:45;14.00;;;7.70;;
61435;SDS011;47304;47.456;19.160;2023-06-19T07:48:11;12.40;;;7.40;;
61435;SDS011;47304;47.456;19.160;2023-06-19T07:50:38;9.90;;;6.10;;
61435;SDS011;47304;47.456;19.160;2023-06-19T07:53:04;11.30;;;5.90;;
61435;SDS011;47304;47.456;19.160;2023-06-19T07:55:32;9.50;;;5.90;;
61435;SDS011;47304;47.456;19.160;2023-06-19T07:57:59;12.20;;;5.80;;
61435;SDS011;47304;47.456;19.160;2023-06-19T08:00:25;12.10;;;5.90;;
61435;SDS011;47304;47.456;19.160;2023-06-19T08:02:53;11.20;;;6.70;;
61435;SDS011;47304;47.456;19.160;2023-06-19T08:05:19;12.90;;;6.50;;
61435;SDS011;47304;47.456;19.160;2023-06-19T08:07:46;10.00;;;6.40;;
61435;SDS011;47304;47.456;19.160;2023-06-19T08:10:13;8.70;;;5.80;;
61435;SDS011;47304;47.456;19.160;2023-06-19T08:12:41;9.30;;;5.90;;
61435;SDS011;47304;47.456;19.160;2023-06-19T08:15:08;10.30;;;6.20;;
61435;SDS011;47304;47.456;19.160;2023-06-19T08:17:35;8.90;;;5.40;;
61435;SDS011;47304;47.456;19.160;2023-06-19T08:20:02;9.70;;;5.90;;
61435;SDS011;47304;47.456;19.160;2023-06-19T08:22:29;9.50;;;6.00;;
61435;SDS011;47304;47.456;19.160;2023-06-19T08:24:55;9.50;;;6.10;;
61435;SDS011;47304;47.456;19.160;2023-06-19T08:27:22;11.30;;;6.20;;
61435;SDS011;47304;47.456;19.160;2023-06-19T08:29:49;8.70;;;5.30;;
61435;SDS011;47304;47.456;19.160;2023-06-19T08:32:15;9.10;;;5.50;;
61435;SDS011;47304;47.456;19.160;2023-06-19T08:34:42;8.40;;;5.40;;
61435;SDS011;47304;47.456;19.160;2023-06-19T08:37:09;9.60;;;5.90;;
61435;SDS011;47304;47.456;19.160;2023-06-19T08:39:35;10.40;;;5.40;;
61435;SDS011;47304;47.456;19.160;2023-06-19T08:42:02;9.10;;;5.90;;
61435;SDS011;47304;47.456;19.160;2023-06-19T08:44:29;11.80;;;5.90;;
61435;SDS011;47304;47.456;19.160;2023-06-19T08:46:57;9.70;;;5.70;;
61435;SDS011;47304;47.456;19.160;2023-06-19T08:49:23;8.90;;;5.40;;
61435;SDS011;47304;47.456;19.160;2023-06-19T08:51:50;9.10;;;5.60;;
61435;SDS011;47304;47.456;19.160;2023-06-19T08:54:17;9.80;;;5.60;;
61435;SDS011;47304;47.456;19.160;2023-06-19T08:56:44;9.10;;;5.10;;
61435;SDS011;47304;47.456;19.160;2023-06-19T08:59:14;9.20;;;5.60;;
61435;SDS011;47304;47.456;19.160;2023-06-19T09:01:51;9.30;;;5.30;;
61435;SDS011;47304;47.456;19.160;2023-06-19T09:04:20;9.50;;;5.50;;
61435;SDS011;47304;47.456;19.160;2023-06-19T09:06:51;10.10;;;5.90;;
61435;SDS011;47304;47.456;19.160;2023-06-19T09:09:20;8.20;;;5.40;;
61435;SDS011;47304;47.456;19.160;2023-06-19T09:14:31;9.80;;;5.70;;
61435;SDS011;47304;47.456;19.160;2023-06-19T09:17:05;10.60;;;6.60;;
61435;SDS011;47304;47.456;19.160;2023-06-19T09:19:37;10.90;;;6.00;;
61435;SDS011;47304;47.456;19.160;2023-06-19T09:22:05;8.80;;;5.20;;
61435;SDS011;47304;47.456;19.160;2023-06-19T09:24:36;8.80;;;5.30;;
61435;SDS011;47304;47.456;19.160;2023-06-19T09:27:15;10.60;;;6.20;;
61435;SDS011;47304;47.456;19.160;2023-06-19T09:29:43;10.50;;;5.50;;
61435;SDS011;47304;47.456;19.160;2023-06-19T09:34:42;12.50;;;5.50;;
61435;SDS011;47304;47.456;19.160;2023-06-19T09:37:09;9.30;;;5.40;;
61435;SDS011;47304;47.456;19.160;2023-06-19T09:39:39;10.20;;;6.00;;
61435;SDS011;47304;47.456;19.160;2023-06-19T09:42:07;8.90;;;5.00;;
61435;SDS011;47304;47.456;19.160;2023-06-19T09:44:44;9.40;;;5.80;;
61435;SDS011;47304;47.456;19.160;2023-06-19T09:47:15;9.20;;;5.70;;
61435;SDS011;47304;47.456;19.160;2023-06-19T09:49:47;10.10;;;5.90;;
61435;SDS011;47304;47.456;19.160;2023-06-19T09:52:21;8.70;;;5.30;;
61435;SDS011;47304;47.456;19.160;2023-06-19T09:54:49;9.10;;;5.20;;
61435;SDS011;47304;47.456;19.160;2023-06-19T09:57:17;10.50;;;5.40;;
61435;SDS011;47304;47.456;19.160;2023-06-19T09:59:43;8.50;;;5.50;;
61435;SDS011;47304;47.456;19.160;2023-06-19T10:02:16;10.60;;;6.00;;
61435;SDS011;47304;47.456;19.160;2023-06-19T10:04:51;9.20;;;5.50;;
61435;SDS011;47304;47.456;19.160;2023-06-19T10:07:20;9.00;;;5.60;;
61435;SDS011;47304;47.456;19.160;2023-06-19T10:10:23;9.10;;;5.30;;
61435;SDS011;47304;47.456;19.160;2023-06-19T10:12:53;8.70;;;5.50;;
61435;SDS011;47304;47.456;19.160;2023-06-19T10:15:22;8.90;;;5.60;;
61435;SDS011;47304;47.456;19.160;2023-06-19T10:20:35;12.00;;;5.40;;
61435;SDS011;47304;47.456;19.160;2023-06-19T10:23:12;8.90;;;5.60;;
61435;SDS011;47304;47.456;19.160;2023-06-19T10:25:40;12.10;;;8.20;;
61435;SDS011;47304;47.456;19.160;2023-06-19T10:28:24;9.20;;;5.50;;
61435;SDS011;47304;47.456;19.160;2023-06-19T10:33:29;10.40;;;5.80;;
61435;SDS011;47304;47.456;19.160;2023-06-19T10:35:57;8.90;;;5.10;;
61435;SDS011;47304;47.456;19.160;2023-06-19T10:38:24;12.40;;;5.70;;
61435;SDS011;47304;47.456;19.160;2023-06-19T10:40:51;10.40;;;6.00;;
61435;SDS011;47304;47.456;19.160;2023-06-19T10:43:22;10.50;;;5.40;;
61435;SDS011;47304;47.456;19.160;2023-06-19T10:45:50;8.20;;;4.90;;
61435;SDS011;47304;47.456;19.160;2023-06-19T10:48:21;9.70;;;4.90;;
61435;SDS011;47304;47.456;19.160;2023-06-19T10:50:50;11.60;;;5.00;;
61435;SDS011;47304;47.456;19.160;2023-06-19T10:53:25;10.50;;;5.50;;
61435;SDS011;47304;47.456;19.160;2023-06-19T10:55:59;8.40;;;4.70;;
61435;SDS011;47304;47.456;19.160;2023-06-19T10:58:28;8.20;;;4.90;;
61435;SDS011;47304;47.456;19.160;2023-06-19T11:00:55;8.60;;;4.90;;
61435;SDS011;47304;47.456;19.160;2023-06-19T11:03:22;7.90;;;4.80;;
61435;SDS011;47304;47.456;19.160;2023-06-19T11:05:49;7.90;;;5.10;;
61435;SDS011;47304;47.456;19.160;2023-06-19T11:08:19;9.40;;;4.80;;
61435;SDS011;47304;47.456;19.160;2023-06-19T11:10:46;8.90;;;5.00;;
61435;SDS011;47304;47.456;19.160;2023-06-19T11:13:15;9.80;;;4.90;;
61435;SDS011;47304;47.456;19.160;2023-06-19T11:15:43;9.30;;;5.20;;
61435;SDS011;47304;47.456;19.160;2023-06-19T11:18:11;8.20;;;4.90;;
61435;SDS011;47304;47.456;19.160;2023-06-19T11:23:27;9.50;;;5.90;;
61435;SDS011;47304;47.456;19.160;2023-06-19T11:26:02;11.70;;;5.80;;
61435;SDS011;47304;47.456;19.160;2023-06-19T11:28:30;9.10;;;5.30;;
61435;SDS011;47304;47.456;19.160;2023-06-19T11:30:57;10.10;;;5.40;;
61435;SDS011;47304;47.456;19.160;2023-06-19T11:33:26;8.40;;;4.70;;
61435;SDS011;47304;47.456;19.160;2023-06-19T11:35:53;10.80;;;5.10;;
61435;SDS011;47304;47.456;19.160;2023-06-19T11:38:22;8.70;;;5.20;;
61435;SDS011;47304;47.456;19.160;2023-06-19T11:40:50;10.60;;;5.20;;
61435;SDS011;47304;47.456;19.160;2023-06-19T11:43:30;8.50;;;5.20;;
61435;SDS011;47304;47.456;19.160;2023-06-19T11:46:04;9.50;;;5.50;;
61435;SDS011;47304;47.456;19.160;2023-06-19T11:48:31;11.10;;;5.00;;
61435;SDS011;47304;47.456;19.160;2023-06-19T11:50:58;10.20;;;5.40;;
61435;SDS011;47304;47.456;19.160;2023-06-19T11:53:25;8.00;;;5.10;;
61435;SDS011;47304;47.456;19.160;2023-06-19T11:55:52;8.40;;;4.80;;
61435;SDS011;47304;47.456;19.160;2023-06-19T11:58:18;10.40;;;5.10;;
61435;SDS011;47304;47.456;19.160;2023-06-19T12:00:46;9.60;;;5.20;;
61435;SDS011;47304;47.456;19.160;2023-06-19T12:03:13;10.70;;;5.30;;
61435;SDS011;47304;47.456;19.160;2023-06-19T12:05:40;8.10;;;5.20;;
61435;SDS011;47304;47.456;19.160;2023-06-19T12:08:06;8.40;;;4.90;;
61435;SDS011;47304;47.456;19.160;2023-06-19T12:10:33;8.90;;;5.20;;
61435;SDS011;47304;47.456;19.160;2023-06-19T12:13:00;8.20;;;5.00;;
61435;SDS011;47304;47.456;19.160;2023-06-19T12:15:27;11.70;;;5.10;;
61435;SDS011;47304;47.456;19.160;2023-06-19T12:17:53;10.20;;;5.10;;
61435;SDS011;47304;47.456;19.160;2023-06-19T12:20:20;11.30;;;5.10;;
61435;SDS011;47304;47.456;19.160;2023-06-19T12:22:48;9.20;;;5.20;;
61435;SDS011;47304;47.456;19.160;2023-06-19T12:25:14;10.00;;;5.10;;
61435;SDS011;47304;47.456;19.160;2023-06-19T12:27:41;9.90;;;5.50;;
61435;SDS011;47304;47.456;19.160;2023-06-19T12:30:09;10.20;;;5.60;;
61435;SDS011;47304;47.456;19.160;2023-06-19T12:32:36;8.20;;;5.10;;
61435;SDS011;47304;47.456;19.160;2023-06-19T12:35:03;8.30;;;5.10;;
61435;SDS011;47304;47.456;19.160;2023-06-19T12:37:30;9.00;;;5.20;;
61435;SDS011;47304;47.456;19.160;2023-06-19T12:39:57;7.60;;;4.80;;
61435;SDS011;47304;47.456;19.160;2023-06-19T12:42:23;9.60;;;5.30;;
61435;SDS011;47304;47.456;19.160;2023-06-19T12:44:50;9.10;;;5.50;;
61435;SDS011;47304;47.456;19.160;2023-06-19T12:47:16;8.40;;;5.00;;
61435;SDS011;47304;47.456;19.160;2023-06-19T12:49:43;12.20;;;5.40;;
61435;SDS011;47304;47.456;19.160;2023-06-19T12:52:10;9.20;;;5.60;;
61435;SDS011;47304;47.456;19.160;2023-06-19T12:54:37;9.30;;;5.30;;
61435;SDS011;47304;47.456;19.160;2023-06-19T12:57:04;8.90;;;5.60;;
61435;SDS011;47304;47.456;19.160;2023-06-19T12:59:30;9.00;;;5.40;;
61435;SDS011;47304;47.456;19.160;2023-06-19T13:01:57;9.50;;;5.70;;
61435;SDS011;47304;47.456;19.160;2023-06-19T13:04:24;8.60;;;5.40;;
61435;SDS011;47304;47.456;19.160;2023-06-19T13:06:50;10.60;;;5.40;;
61435;SDS011;47304;47.456;19.160;2023-06-19T13:09:17;9.90;;;5.70;;
61435;SDS011;47304;47.456;19.160;2023-06-19T13:11:43;9.20;;;5.50;;
61435;SDS011;47304;47.456;19.160;2023-06-19T13:14:10;10.10;;;6.00;;
61435;SDS011;47304;47.456;19.160;2023-06-19T13:16:36;9.80;;;5.10;;
61435;SDS011;47304;47.456;19.160;2023-06-19T13:19:06;9.00;;;5.50;;
61435;SDS011;47304;47.456;19.160;2023-06-19T13:21:32;9.90;;;5.50;;
61435;SDS011;47304;47.456;19.160;2023-06-19T13:23:59;9.00;;;5.60;;
61435;SDS011;47304;47.456;19.160;2023-06-19T13:26:26;11.60;;;6.20;;
61435;SDS011;47304;47.456;19.160;2023-06-19T13:28:53;8.50;;;5.10;;
61435;SDS011;47304;47.456;19.160;2023-06-19T13:31:19;8.90;;;5.40;;
61435;SDS011;47304;47.456;19.160;2023-06-19T13:33:46;9.60;;;5.60;;
61435;SDS011;47304;47.456;19.160;2023-06-19T13:36:12;9.70;;;5.70;;
61435;SDS011;47304;47.456;19.160;2023-06-19T13:38:39;8.90;;;5.50;;
61435;SDS011;47304;47.456;19.160;2023-06-19T13:41:10;9.70;;;5.40;;
61435;SDS011;47304;47.456;19.160;2023-06-19T13:43:36;11.00;;;5.40;;
61435;SDS011;47304;47.456;19.160;2023-06-19T13:46:03;9.30;;;5.30;;
61435;SDS011;47304;47.456;19.160;2023-06-19T13:48:32;9.00;;;4.70;;
61435;SDS011;47304;47.456;19.160;2023-06-19T13:51:00;10.80;;;5.20;;
61435;SDS011;47304;47.456;19.160;2023-06-19T13:53:27;9.60;;;5.50;;
61435;SDS011;47304;47.456;19.160;2023-06-19T13:55:53;8.30;;;5.20;;
61435;SDS011;47304;47.456;19.160;2023-06-19T13:58:20;9.50;;;5.30;;
61435;SDS011;47304;47.456;19.160;2023-06-19T14:00:47;9.40;;;5.60;;
61435;SDS011;47304;47.456;19.160;2023-06-19T14:03:13;10.90;;;5.50;;
61435;SDS011;47304;47.456;19.160;2023-06-19T14:05:40;8.80;;;5.90;;
61435;SDS011;47304;47.456;19.160;2023-06-19T14:08:07;15.10;;;6.00;;
61435;SDS011;47304;47.456;19.160;2023-06-19T14:10:34;10.80;;;5.90;;
61435;SDS011;47304;47.456;19.160;2023-06-19T14:13:00;8.60;;;5.60;;
61435;SDS011;47304;47.456;19.160;2023-06-19T14:15:27;8.40;;;5.40;;
61435;SDS011;47304;47.456;19.160;2023-06-19T14:17:53;9.40;;;5.00;;
61435;SDS011;47304;47.456;19.160;2023-06-19T14:20:20;11.30;;;5.90;;
61435;SDS011;47304;47.456;19.160;2023-06-19T14:22:47;9.60;;;5.50;;
61435;SDS011;47304;47.456;19.160;2023-06-19T14:25:14;10.90;;;5.40;;
61435;SDS011;47304;47.456;19.160;2023-06-19T14:27:40;10.40;;;5.90;;
61435;SDS011;47304;47.456;19.160;2023-06-19T14:30:07;9.40;;;6.00;;
61435;SDS011;47304;47.456;19.160;2023-06-19T14:32:35;9.50;;;5.80;;
61435;SDS011;47304;47.456;19.160;2023-06-19T14:35:02;13.20;;;7.90;;
61435;SDS011;47304;47.456;19.160;2023-06-19T14:37:30;9.20;;;5.60;;
61435;SDS011;47304;47.456;19.160;2023-06-19T14:39:57;8.70;;;5.50;;
61435;SDS011;47304;47.456;19.160;2023-06-19T14:42:23;9.60;;;5.00;;
61435;SDS011;47304;47.456;19.160;2023-06-19T14:44:50;9.20;;;5.30;;